sensor_id;sensor_type;location;lat;lon;timestamp;P1;durP1;ratioP1;P2;durP2;ratioP2
55082;SDS011;40978;52.850;6.506;2023-04-01T00:00:27;9.60;;;5.63;;
55082;SDS011;40978;52.850;6.506;2023-04-01T00:02:53;8.27;;;5.90;;
55082;SDS011;40978;52.850;6.506;2023-04-01T00:05:22;8.23;;;5.43;;
55082;SDS011;40978;52.850;6.506;2023-04-01T00:07:49;9.30;;;5.95;;
55082;SDS011;40978;52.850;6.506;2023-04-01T00:10:16;9.00;;;6.18;;
55082;SDS011;40978;52.850;6.506;2023-04-01T00:12:42;8.98;;;5.88;;
55082;SDS011;40978;52.850;6.506;2023-04-01T00:15:11;7.57;;;5.07;;
55082;SDS011;40978;52.850;6.506;2023-04-01T00:17:37;9.77;;;5.65;;
55082;SDS011;40978;52.850;6.506;2023-04-01T00:20:04;10.13;;;5.25;;
55082;SDS011;40978;52.850;6.506;2023-04-01T00:22:32;6.80;;;4.93;;
55082;SDS011;40978;52.850;6.506;2023-04-01T00:24:59;6.55;;;4.75;;
55082;SDS011;40978;52.850;6.506;2023-04-01T00:27:25;5.28;;;4.65;;
55082;SDS011;40978;52.850;6.506;2023-04-01T00:29:51;6.80;;;4.32;;
55082;SDS011;40978;52.850;6.506;2023-04-01T00:32:16;6.20;;;3.72;;
55082;SDS011;40978;52.850;6.506;2023-04-01T00:34:42;6.50;;;4.28;;
55082;SDS011;40978;52.850;6.506;2023-04-01T00:37:09;6.93;;;3.53;;
55082;SDS011;40978;52.850;6.506;2023-04-01T00:39:36;4.93;;;3.35;;
55082;SDS011;40978;52.850;6.506;2023-04-01T00:42:03;3.67;;;2.58;;
55082;SDS011;40978;52.850;6.506;2023-04-01T00:44:33;3.70;;;2.42;;
55082;SDS011;40978;52.850;6.506;2023-04-01T00:47:02;3.47;;;2.05;;
55082;SDS011;40978;52.850;6.506;2023-04-01T00:49:40;3.13;;;1.50;;
55082;SDS011;40978;52.850;6.506;2023-04-01T00:52:11;2.40;;;1.25;;
55082;SDS011;40978;52.850;6.506;2023-04-01T00:54:41;4.90;;;1.80;;
55082;SDS011;40978;52.850;6.506;2023-04-01T00:57:15;1.75;;;1.33;;
55082;SDS011;40978;52.850;6.506;2023-04-01T00:59:49;3.00;;;2.05;;
55082;SDS011;40978;52.850;6.506;2023-04-01T01:02:19;3.97;;;2.30;;
55082;SDS011;40978;52.850;6.506;2023-04-01T01:04:46;3.45;;;2.70;;
55082;SDS011;40978;52.850;6.506;2023-04-01T01:07:15;4.32;;;2.47;;
55082;SDS011;40978;52.850;6.506;2023-04-01T01:16:00;4.15;;;3.10;;
55082;SDS011;40978;52.850;6.506;2023-04-01T01:18:50;5.00;;;3.25;;
55082;SDS011;40978;52.850;6.506;2023-04-01T01:34:55;4.80;;;3.95;;
55082;SDS011;40978;52.850;6.506;2023-04-01T01:37:38;6.63;;;4.25;;
55082;SDS011;40978;52.850;6.506;2023-04-01T01:40:06;8.93;;;4.32;;
55082;SDS011;40978;52.850;6.506;2023-04-01T01:42:37;6.50;;;4.03;;
55082;SDS011;40978;52.850;6.506;2023-04-01T01:45:05;8.30;;;4.78;;
55082;SDS011;40978;52.850;6.506;2023-04-01T01:47:34;9.82;;;5.28;;
55082;SDS011;40978;52.850;6.506;2023-04-01T01:50:01;8.13;;;4.75;;
55082;SDS011;40978;52.850;6.506;2023-04-01T01:52:28;10.15;;;5.25;;
55082;SDS011;40978;52.850;6.506;2023-04-01T01:54:55;8.80;;;5.18;;
55082;SDS011;40978;52.850;6.506;2023-04-01T01:57:29;6.32;;;4.85;;
55082;SDS011;40978;52.850;6.506;2023-04-01T02:00:04;7.68;;;4.68;;
55082;SDS011;40978;52.850;6.506;2023-04-01T02:02:39;8.50;;;4.85;;
55082;SDS011;40978;52.850;6.506;2023-04-01T02:05:10;5.30;;;4.70;;
55082;SDS011;40978;52.850;6.506;2023-04-01T02:07:42;8.50;;;5.32;;
55082;SDS011;40978;52.850;6.506;2023-04-01T02:10:13;7.57;;;5.25;;
55082;SDS011;40978;52.850;6.506;2023-04-01T02:12:39;14.05;;;5.55;;
55082;SDS011;40978;52.850;6.506;2023-04-01T02:15:09;10.95;;;5.40;;
55082;SDS011;40978;52.850;6.506;2023-04-01T02:17:38;9.88;;;5.03;;
55082;SDS011;40978;52.850;6.506;2023-04-01T02:20:26;7.25;;;4.75;;
55082;SDS011;40978;52.850;6.506;2023-04-01T02:22:55;6.72;;;4.30;;
55082;SDS011;40978;52.850;6.506;2023-04-01T02:25:32;9.98;;;5.30;;
55082;SDS011;40978;52.850;6.506;2023-04-01T02:28:00;8.70;;;4.88;;
55082;SDS011;40978;52.850;6.506;2023-04-01T02:30:29;10.15;;;5.03;;
55082;SDS011;40978;52.850;6.506;2023-04-01T02:32:57;6.97;;;4.68;;
55082;SDS011;40978;52.850;6.506;2023-04-01T02:35:24;13.25;;;5.13;;
55082;SDS011;40978;52.850;6.506;2023-04-01T02:37:50;8.18;;;4.28;;
55082;SDS011;40978;52.850;6.506;2023-04-01T02:40:18;13.50;;;5.07;;
55082;SDS011;40978;52.850;6.506;2023-04-01T02:42:44;6.25;;;4.25;;
55082;SDS011;40978;52.850;6.506;2023-04-01T02:45:11;7.25;;;4.35;;
55082;SDS011;40978;52.850;6.506;2023-04-01T02:47:38;11.23;;;5.18;;
55082;SDS011;40978;52.850;6.506;2023-04-01T02:50:04;9.88;;;4.82;;
55082;SDS011;40978;52.850;6.506;2023-04-01T02:52:31;10.00;;;5.25;;
55082;SDS011;40978;52.850;6.506;2023-04-01T02:55:00;11.48;;;4.95;;
55082;SDS011;40978;52.850;6.506;2023-04-01T02:57:25;5.53;;;4.18;;
55082;SDS011;40978;52.850;6.506;2023-04-01T02:59:51;9.05;;;5.20;;
55082;SDS011;40978;52.850;6.506;2023-04-01T03:02:17;13.63;;;6.57;;
55082;SDS011;40978;52.850;6.506;2023-04-01T03:04:43;9.23;;;5.65;;
55082;SDS011;40978;52.850;6.506;2023-04-01T03:07:09;8.95;;;5.80;;
55082;SDS011;40978;52.850;6.506;2023-04-01T03:09:36;13.07;;;6.63;;
55082;SDS011;40978;52.850;6.506;2023-04-01T03:12:02;12.82;;;5.97;;
55082;SDS011;40978;52.850;6.506;2023-04-01T03:14:28;11.05;;;5.65;;
55082;SDS011;40978;52.850;6.506;2023-04-01T03:16:54;10.20;;;5.97;;
55082;SDS011;40978;52.850;6.506;2023-04-01T03:19:20;11.05;;;5.82;;
55082;SDS011;40978;52.850;6.506;2023-04-01T03:21:46;10.80;;;6.20;;
55082;SDS011;40978;52.850;6.506;2023-04-01T03:24:11;11.77;;;5.82;;
55082;SDS011;40978;52.850;6.506;2023-04-01T03:26:37;9.05;;;5.43;;
55082;SDS011;40978;52.850;6.506;2023-04-01T03:29:03;7.93;;;4.93;;
55082;SDS011;40978;52.850;6.506;2023-04-01T03:31:30;10.15;;;6.03;;
55082;SDS011;40978;52.850;6.506;2023-04-01T03:33:56;14.75;;;6.07;;
55082;SDS011;40978;52.850;6.506;2023-04-01T03:36:22;12.90;;;6.18;;
55082;SDS011;40978;52.850;6.506;2023-04-01T03:38:48;8.75;;;5.82;;
55082;SDS011;40978;52.850;6.506;2023-04-01T03:41:17;11.38;;;6.53;;
55082;SDS011;40978;52.850;6.506;2023-04-01T03:43:43;11.15;;;6.47;;
55082;SDS011;40978;52.850;6.506;2023-04-01T03:46:10;13.32;;;7.40;;
55082;SDS011;40978;52.850;6.506;2023-04-01T03:48:36;9.32;;;6.63;;
55082;SDS011;40978;52.850;6.506;2023-04-01T03:51:05;10.85;;;6.63;;
55082;SDS011;40978;52.850;6.506;2023-04-01T03:53:32;12.05;;;7.10;;
55082;SDS011;40978;52.850;6.506;2023-04-01T03:55:57;9.15;;;7.32;;
55082;SDS011;40978;52.850;6.506;2023-04-01T03:58:23;9.57;;;7.15;;
55082;SDS011;40978;52.850;6.506;2023-04-01T04:00:49;13.50;;;7.30;;
55082;SDS011;40978;52.850;6.506;2023-04-01T04:03:15;15.32;;;8.07;;
55082;SDS011;40978;52.850;6.506;2023-04-01T04:05:47;14.27;;;8.00;;
55082;SDS011;40978;52.850;6.506;2023-04-01T04:08:13;20.58;;;8.55;;
55082;SDS011;40978;52.850;6.506;2023-04-01T04:10:41;12.00;;;7.32;;
55082;SDS011;40978;52.850;6.506;2023-04-01T04:13:07;11.70;;;7.45;;
55082;SDS011;40978;52.850;6.506;2023-04-01T04:15:33;11.40;;;7.55;;
55082;SDS011;40978;52.850;6.506;2023-04-01T04:17:58;13.48;;;7.35;;
55082;SDS011;40978;52.850;6.506;2023-04-01T04:20:24;17.05;;;8.07;;
55082;SDS011;40978;52.850;6.506;2023-04-01T04:22:50;12.68;;;7.68;;
55082;SDS011;40978;52.850;6.506;2023-04-01T04:25:16;13.60;;;7.13;;
55082;SDS011;40978;52.850;6.506;2023-04-01T04:27:42;13.10;;;6.50;;
55082;SDS011;40978;52.850;6.506;2023-04-01T04:30:09;9.93;;;6.30;;
55082;SDS011;40978;52.850;6.506;2023-04-01T04:32:35;10.77;;;6.63;;
55082;SDS011;40978;52.850;6.506;2023-04-01T04:35:01;12.13;;;6.82;;
55082;SDS011;40978;52.850;6.506;2023-04-01T04:37:29;12.93;;;6.60;;
55082;SDS011;40978;52.850;6.506;2023-04-01T04:39:55;9.60;;;6.45;;
55082;SDS011;40978;52.850;6.506;2023-04-01T04:42:21;16.00;;;7.25;;
55082;SDS011;40978;52.850;6.506;2023-04-01T04:44:47;13.68;;;7.00;;
55082;SDS011;40978;52.850;6.506;2023-04-01T04:47:12;12.20;;;6.47;;
55082;SDS011;40978;52.850;6.506;2023-04-01T04:49:38;10.48;;;6.43;;
55082;SDS011;40978;52.850;6.506;2023-04-01T04:52:04;11.38;;;6.50;;
55082;SDS011;40978;52.850;6.506;2023-04-01T04:54:30;20.05;;;7.60;;
55082;SDS011;40978;52.850;6.506;2023-04-01T04:56:55;11.43;;;6.47;;
55082;SDS011;40978;52.850;6.506;2023-04-01T04:59:21;23.65;;;8.02;;
55082;SDS011;40978;52.850;6.506;2023-04-01T05:01:47;17.42;;;6.93;;
55082;SDS011;40978;52.850;6.506;2023-04-01T05:04:13;10.25;;;6.57;;
55082;SDS011;40978;52.850;6.506;2023-04-01T05:06:38;13.88;;;6.35;;
55082;SDS011;40978;52.850;6.506;2023-04-01T05:09:04;13.75;;;6.45;;
55082;SDS011;40978;52.850;6.506;2023-04-01T05:11:30;21.23;;;7.20;;
55082;SDS011;40978;52.850;6.506;2023-04-01T05:13:55;18.95;;;7.15;;
55082;SDS011;40978;52.850;6.506;2023-04-01T05:16:21;14.48;;;7.07;;
55082;SDS011;40978;52.850;6.506;2023-04-01T05:18:47;17.73;;;6.95;;
55082;SDS011;40978;52.850;6.506;2023-04-01T05:21:13;11.75;;;6.40;;
55082;SDS011;40978;52.850;6.506;2023-04-01T05:23:40;12.48;;;7.60;;
55082;SDS011;40978;52.850;6.506;2023-04-01T05:26:08;14.05;;;7.35;;
55082;SDS011;40978;52.850;6.506;2023-04-01T05:28:37;25.63;;;7.65;;
55082;SDS011;40978;52.850;6.506;2023-04-01T05:31:04;13.68;;;6.68;;
55082;SDS011;40978;52.850;6.506;2023-04-01T05:33:30;13.73;;;6.95;;
55082;SDS011;40978;52.850;6.506;2023-04-01T05:35:56;13.98;;;6.75;;
55082;SDS011;40978;52.850;6.506;2023-04-01T05:38:30;17.77;;;7.57;;
55082;SDS011;40978;52.850;6.506;2023-04-01T05:40:59;14.85;;;6.25;;
55082;SDS011;40978;52.850;6.506;2023-04-01T05:43:26;17.90;;;6.53;;
55082;SDS011;40978;52.850;6.506;2023-04-01T05:45:52;13.73;;;6.30;;
55082;SDS011;40978;52.850;6.506;2023-04-01T05:48:17;19.67;;;6.80;;
55082;SDS011;40978;52.850;6.506;2023-04-01T05:50:43;11.93;;;6.72;;
55082;SDS011;40978;52.850;6.506;2023-04-01T05:53:09;12.55;;;6.03;;
55082;SDS011;40978;52.850;6.506;2023-04-01T05:55:35;12.00;;;5.55;;
55082;SDS011;40978;52.850;6.506;2023-04-01T05:58:01;13.25;;;6.38;;
55082;SDS011;40978;52.850;6.506;2023-04-01T06:00:27;16.60;;;6.93;;
55082;SDS011;40978;52.850;6.506;2023-04-01T06:02:53;15.05;;;6.65;;
55082;SDS011;40978;52.850;6.506;2023-04-01T06:05:30;9.48;;;6.03;;
55082;SDS011;40978;52.850;6.506;2023-04-01T06:08:16;12.32;;;7.50;;
55082;SDS011;40978;52.850;6.506;2023-04-01T06:18:56;18.63;;;10.48;;
55082;SDS011;40978;52.850;6.506;2023-04-01T06:27:18;16.45;;;11.15;;
55082;SDS011;40978;52.850;6.506;2023-04-01T06:38:19;21.75;;;13.60;;
55082;SDS011;40978;52.850;6.506;2023-04-01T06:40:55;18.58;;;12.40;;
55082;SDS011;40978;52.850;6.506;2023-04-01T06:43:41;19.92;;;13.45;;
55082;SDS011;40978;52.850;6.506;2023-04-01T06:46:44;15.45;;;11.18;;
55082;SDS011;40978;52.850;6.506;2023-04-01T06:55:21;17.70;;;9.73;;
55082;SDS011;40978;52.850;6.506;2023-04-01T06:57:58;14.05;;;8.48;;
55082;SDS011;40978;52.850;6.506;2023-04-01T07:00:30;13.70;;;7.80;;
55082;SDS011;40978;52.850;6.506;2023-04-01T07:03:10;11.88;;;7.28;;
55082;SDS011;40978;52.850;6.506;2023-04-01T07:05:45;9.32;;;6.43;;
55082;SDS011;40978;52.850;6.506;2023-04-01T07:08:12;11.85;;;6.82;;
55082;SDS011;40978;52.850;6.506;2023-04-01T07:10:48;9.70;;;7.05;;
55082;SDS011;40978;52.850;6.506;2023-04-01T07:13:36;9.32;;;7.20;;
55082;SDS011;40978;52.850;6.506;2023-04-01T07:24:51;10.95;;;6.88;;
55082;SDS011;40978;52.850;6.506;2023-04-01T07:27:19;11.60;;;6.43;;
55082;SDS011;40978;52.850;6.506;2023-04-01T07:29:44;10.07;;;6.65;;
55082;SDS011;40978;52.850;6.506;2023-04-01T07:35:29;6.72;;;6.00;;
55082;SDS011;40978;52.850;6.506;2023-04-01T07:41:17;7.85;;;6.15;;
55082;SDS011;40978;52.850;6.506;2023-04-01T07:52:23;6.90;;;6.20;;
55082;SDS011;40978;52.850;6.506;2023-04-01T07:55:10;6.88;;;6.18;;
55082;SDS011;40978;52.850;6.506;2023-04-01T07:57:43;8.40;;;7.43;;
55082;SDS011;40978;52.850;6.506;2023-04-01T08:00:27;8.82;;;7.43;;
55082;SDS011;40978;52.850;6.506;2023-04-01T08:05:57;9.13;;;7.72;;
55082;SDS011;40978;52.850;6.506;2023-04-01T08:26:01;9.25;;;8.15;;
55082;SDS011;40978;52.850;6.506;2023-04-01T08:31:16;10.25;;;9.05;;
55082;SDS011;40978;52.850;6.506;2023-04-01T08:33:52;10.07;;;8.93;;
55082;SDS011;40978;52.850;6.506;2023-04-01T08:36:30;10.70;;;8.88;;
55082;SDS011;40978;52.850;6.506;2023-04-01T08:39:04;9.52;;;8.57;;
55082;SDS011;40978;52.850;6.506;2023-04-01T08:44:41;8.35;;;7.55;;
55082;SDS011;40978;52.850;6.506;2023-04-01T08:58:50;5.38;;;3.75;;
55082;SDS011;40978;52.850;6.506;2023-04-01T09:15:18;4.00;;;3.13;;
55082;SDS011;40978;52.850;6.506;2023-04-01T09:29:17;7.05;;;6.35;;
55082;SDS011;40978;52.850;6.506;2023-04-01T09:50:46;10.05;;;9.15;;
55082;SDS011;40978;52.850;6.506;2023-04-01T10:01:39;11.05;;;9.90;;
55082;SDS011;40978;52.850;6.506;2023-04-01T10:06:51;10.98;;;9.90;;
55082;SDS011;40978;52.850;6.506;2023-04-01T10:12:25;11.27;;;10.27;;
55082;SDS011;40978;52.850;6.506;2023-04-01T10:20:45;10.75;;;9.65;;
55082;SDS011;40978;52.850;6.506;2023-04-01T10:23:19;11.50;;;10.38;;
55082;SDS011;40978;52.850;6.506;2023-04-01T10:37:34;10.60;;;9.60;;
55082;SDS011;40978;52.850;6.506;2023-04-01T10:57:43;11.73;;;10.63;;
55082;SDS011;40978;52.850;6.506;2023-04-01T11:00:24;10.38;;;9.38;;
55082;SDS011;40978;52.850;6.506;2023-04-01T11:09:21;5.40;;;4.90;;
55082;SDS011;40978;52.850;6.506;2023-04-01T11:14:57;6.38;;;4.95;;
55082;SDS011;40978;52.850;6.506;2023-04-01T11:37:45;5.47;;;4.93;;
55082;SDS011;40978;52.850;6.506;2023-04-01T11:40:17;5.70;;;5.18;;
55082;SDS011;40978;52.850;6.506;2023-04-01T11:43:09;6.43;;;5.82;;
55082;SDS011;40978;52.850;6.506;2023-04-01T11:46:08;6.00;;;5.50;;
55082;SDS011;40978;52.850;6.506;2023-04-01T11:48:51;7.93;;;7.15;;
55082;SDS011;40978;52.850;6.506;2023-04-01T12:16:29;4.47;;;4.07;;
55082;SDS011;40978;52.850;6.506;2023-04-01T12:24:53;3.90;;;3.55;;
55082;SDS011;40978;52.850;6.506;2023-04-01T12:27:41;4.72;;;3.25;;
55082;SDS011;40978;52.850;6.506;2023-04-01T12:30:28;3.90;;;3.42;;
55082;SDS011;40978;52.850;6.506;2023-04-01T12:38:48;3.50;;;3.20;;
55082;SDS011;40978;52.850;6.506;2023-04-01T12:41:21;4.22;;;3.92;;
55082;SDS011;40978;52.850;6.506;2023-04-01T12:50:19;3.30;;;3.00;;
55082;SDS011;40978;52.850;6.506;2023-04-01T12:55:59;4.70;;;3.53;;
55082;SDS011;40978;52.850;6.506;2023-04-01T13:10:01;3.72;;;3.42;;
55082;SDS011;40978;52.850;6.506;2023-04-01T13:15:37;3.85;;;3.55;;
55082;SDS011;40978;52.850;6.506;2023-04-01T13:24:24;2.75;;;2.55;;
55082;SDS011;40978;52.850;6.506;2023-04-01T13:40:36;3.40;;;3.10;;
55082;SDS011;40978;52.850;6.506;2023-04-01T13:51:29;4.13;;;3.50;;
55082;SDS011;40978;52.850;6.506;2023-04-01T13:54:22;3.30;;;3.00;;
55082;SDS011;40978;52.850;6.506;2023-04-01T14:11:13;2.20;;;2.00;;
55082;SDS011;40978;52.850;6.506;2023-04-01T14:21:54;1.45;;;1.35;;
55082;SDS011;40978;52.850;6.506;2023-04-01T14:24:42;1.67;;;1.58;;
55082;SDS011;40978;52.850;6.506;2023-04-01T14:41:02;1.83;;;1.58;;
55082;SDS011;40978;52.850;6.506;2023-04-01T14:43:47;1.65;;;1.20;;
55082;SDS011;40978;52.850;6.506;2023-04-01T14:49:35;3.65;;;1.92;;
55082;SDS011;40978;52.850;6.506;2023-04-01T14:52:13;2.55;;;1.70;;
55082;SDS011;40978;52.850;6.506;2023-04-01T14:54:46;1.77;;;1.50;;
55082;SDS011;40978;52.850;6.506;2023-04-01T14:57:15;3.72;;;1.77;;
55082;SDS011;40978;52.850;6.506;2023-04-01T15:16:20;2.13;;;1.25;;
55082;SDS011;40978;52.850;6.506;2023-04-01T15:21:36;1.52;;;1.42;;
55082;SDS011;40978;52.850;6.506;2023-04-01T15:32:57;1.50;;;1.40;;
55082;SDS011;40978;52.850;6.506;2023-04-01T15:35:19;1.60;;;1.40;;
55082;SDS011;40978;52.850;6.506;2023-04-01T15:37:57;1.50;;;1.40;;
55082;SDS011;40978;52.850;6.506;2023-04-01T15:40:42;1.77;;;1.33;;
55082;SDS011;40978;52.850;6.506;2023-04-01T15:48:49;1.67;;;1.27;;
55082;SDS011;40978;52.850;6.506;2023-04-01T15:54:38;1.50;;;1.40;;
55082;SDS011;40978;52.850;6.506;2023-04-01T16:00:31;1.27;;;1.17;;
55082;SDS011;40978;52.850;6.506;2023-04-01T16:16:49;1.55;;;1.17;;
55082;SDS011;40978;52.850;6.506;2023-04-01T16:19:33;2.33;;;0.90;;
55082;SDS011;40978;52.850;6.506;2023-04-01T16:22:14;2.13;;;1.13;;
55082;SDS011;40978;52.850;6.506;2023-04-01T16:30:40;2.38;;;1.90;;
55082;SDS011;40978;52.850;6.506;2023-04-01T16:33:22;2.38;;;1.80;;
55082;SDS011;40978;52.850;6.506;2023-04-01T16:44:05;2.72;;;2.25;;
55082;SDS011;40978;52.850;6.506;2023-04-01T16:46:55;3.08;;;2.47;;
55082;SDS011;40978;52.850;6.506;2023-04-01T16:54:43;3.75;;;3.35;;
55082;SDS011;40978;52.850;6.506;2023-04-01T17:00:28;3.85;;;3.53;;
55082;SDS011;40978;52.850;6.506;2023-04-01T17:05:44;5.35;;;3.90;;
55082;SDS011;40978;52.850;6.506;2023-04-01T17:11:36;5.07;;;3.70;;
55082;SDS011;40978;52.850;6.506;2023-04-01T17:15:15;4.10;;;3.53;;
55082;SDS011;40978;52.850;6.506;2023-04-01T17:20:24;4.78;;;3.80;;
55082;SDS011;40978;52.850;6.506;2023-04-01T17:28:26;4.68;;;4.28;;
55082;SDS011;40978;52.850;6.506;2023-04-01T17:34:06;6.40;;;4.38;;
55082;SDS011;40978;52.850;6.506;2023-04-01T17:37:00;4.93;;;4.20;;
55082;SDS011;40978;52.850;6.506;2023-04-01T17:42:42;5.70;;;4.40;;
55082;SDS011;40978;52.850;6.506;2023-04-01T17:45:21;5.40;;;4.15;;
55082;SDS011;40978;52.850;6.506;2023-04-01T18:04:36;6.68;;;5.28;;
55082;SDS011;40978;52.850;6.506;2023-04-01T18:07:13;6.38;;;4.85;;
55082;SDS011;40978;52.850;6.506;2023-04-01T18:12:44;6.40;;;5.30;;
55082;SDS011;40978;52.850;6.506;2023-04-01T18:18:17;7.72;;;5.22;;
55082;SDS011;40978;52.850;6.506;2023-04-01T18:20:58;9.27;;;4.95;;
55082;SDS011;40978;52.850;6.506;2023-04-01T18:23:46;6.88;;;5.00;;
55082;SDS011;40978;52.850;6.506;2023-04-01T18:26:22;7.07;;;5.15;;
55082;SDS011;40978;52.850;6.506;2023-04-01T18:28:57;9.98;;;6.30;;
55082;SDS011;40978;52.850;6.506;2023-04-01T18:31:36;7.30;;;5.40;;
55082;SDS011;40978;52.850;6.506;2023-04-01T18:34:07;7.05;;;5.53;;
55082;SDS011;40978;52.850;6.506;2023-04-01T18:36:57;7.68;;;6.57;;
55082;SDS011;40978;52.850;6.506;2023-04-01T18:40:02;9.00;;;6.03;;
55082;SDS011;40978;52.850;6.506;2023-04-01T18:45:30;8.77;;;5.25;;
55082;SDS011;40978;52.850;6.506;2023-04-01T18:48:06;5.95;;;5.05;;
55082;SDS011;40978;52.850;6.506;2023-04-01T18:50:59;10.23;;;6.18;;
55082;SDS011;40978;52.850;6.506;2023-04-01T18:53:46;9.10;;;5.55;;
55082;SDS011;40978;52.850;6.506;2023-04-01T18:56:35;9.65;;;6.20;;
55082;SDS011;40978;52.850;6.506;2023-04-01T19:01:39;6.95;;;5.88;;
55082;SDS011;40978;52.850;6.506;2023-04-01T19:04:39;7.15;;;5.72;;
55082;SDS011;40978;52.850;6.506;2023-04-01T19:21:15;8.43;;;6.50;;
55082;SDS011;40978;52.850;6.506;2023-04-01T19:26:34;12.40;;;7.05;;
55082;SDS011;40978;52.850;6.506;2023-04-01T19:32:11;10.05;;;6.38;;
55082;SDS011;40978;52.850;6.506;2023-04-01T19:40:13;11.13;;;6.45;;
55082;SDS011;40978;52.850;6.506;2023-04-01T19:45:38;9.05;;;6.82;;
55082;SDS011;40978;52.850;6.506;2023-04-01T19:48:15;10.20;;;6.85;;
55082;SDS011;40978;52.850;6.506;2023-04-01T19:50:49;10.20;;;6.55;;
55082;SDS011;40978;52.850;6.506;2023-04-01T19:55:57;8.88;;;6.05;;
55082;SDS011;40978;52.850;6.506;2023-04-01T19:58:32;7.65;;;5.80;;
55082;SDS011;40978;52.850;6.506;2023-04-01T20:04:22;9.02;;;6.57;;
55082;SDS011;40978;52.850;6.506;2023-04-01T20:07:09;11.90;;;7.10;;
55082;SDS011;40978;52.850;6.506;2023-04-01T20:18:18;9.97;;;7.50;;
55082;SDS011;40978;52.850;6.506;2023-04-01T20:21:00;11.38;;;7.25;;
55082;SDS011;40978;52.850;6.506;2023-04-01T20:26:10;14.27;;;9.18;;
55082;SDS011;40978;52.850;6.506;2023-04-01T20:37:27;11.13;;;6.80;;
55082;SDS011;40978;52.850;6.506;2023-04-01T20:39:39;9.07;;;6.57;;
55082;SDS011;40978;52.850;6.506;2023-04-01T20:42:29;10.93;;;6.78;;
55082;SDS011;40978;52.850;6.506;2023-04-01T20:50:37;10.52;;;6.88;;
55082;SDS011;40978;52.850;6.506;2023-04-01T20:53:20;12.00;;;7.13;;
55082;SDS011;40978;52.850;6.506;2023-04-01T20:56:23;13.35;;;7.40;;
55082;SDS011;40978;52.850;6.506;2023-04-01T21:02:26;11.00;;;6.75;;
55082;SDS011;40978;52.850;6.506;2023-04-01T21:08:08;14.02;;;7.85;;
55082;SDS011;40978;52.850;6.506;2023-04-01T21:11:16;12.88;;;7.93;;
55082;SDS011;40978;52.850;6.506;2023-04-01T21:25:52;9.07;;;7.03;;
55082;SDS011;40978;52.850;6.506;2023-04-01T21:28:35;11.27;;;7.72;;
55082;SDS011;40978;52.850;6.506;2023-04-01T21:31:21;14.70;;;8.40;;
55082;SDS011;40978;52.850;6.506;2023-04-01T21:34:00;14.60;;;7.15;;
55082;SDS011;40978;52.850;6.506;2023-04-01T22:05:12;10.15;;;6.30;;
55082;SDS011;40978;52.850;6.506;2023-04-01T22:07:30;11.82;;;8.05;;
55082;SDS011;40978;52.850;6.506;2023-04-01T22:10:21;10.43;;;6.72;;
55082;SDS011;40978;52.850;6.506;2023-04-01T22:18:34;9.52;;;5.88;;
55082;SDS011;40978;52.850;6.506;2023-04-01T22:24:03;12.02;;;6.60;;
55082;SDS011;40978;52.850;6.506;2023-04-01T22:29:47;10.18;;;6.78;;
55082;SDS011;40978;52.850;6.506;2023-04-01T22:34:59;9.73;;;5.85;;
55082;SDS011;40978;52.850;6.506;2023-04-01T22:40:25;9.85;;;6.40;;
55082;SDS011;40978;52.850;6.506;2023-04-01T22:43:04;10.02;;;6.47;;
55082;SDS011;40978;52.850;6.506;2023-04-01T22:45:49;9.50;;;6.10;;
55082;SDS011;40978;52.850;6.506;2023-04-01T22:48:47;11.57;;;5.95;;
55082;SDS011;40978;52.850;6.506;2023-04-01T22:56:21;8.77;;;5.97;;
55082;SDS011;40978;52.850;6.506;2023-04-01T23:01:43;8.02;;;5.95;;
55082;SDS011;40978;52.850;6.506;2023-04-01T23:04:16;9.13;;;6.18;;
55082;SDS011;40978;52.850;6.506;2023-04-01T23:06:49;10.38;;;5.95;;
55082;SDS011;40978;52.850;6.506;2023-04-01T23:09:29;9.18;;;6.13;;
55082;SDS011;40978;52.850;6.506;2023-04-01T23:12:08;10.98;;;5.97;;
55082;SDS011;40978;52.850;6.506;2023-04-01T23:15:00;9.88;;;5.55;;
55082;SDS011;40978;52.850;6.506;2023-04-01T23:20:17;9.43;;;5.90;;
55082;SDS011;40978;52.850;6.506;2023-04-01T23:23:22;10.93;;;6.38;;
55082;SDS011;40978;52.850;6.506;2023-04-01T23:26:06;8.73;;;5.80;;
55082;SDS011;40978;52.850;6.506;2023-04-01T23:29:00;11.95;;;6.13;;
55082;SDS011;40978;52.850;6.506;2023-04-01T23:31:27;10.50;;;5.70;;
55082;SDS011;40978;52.850;6.506;2023-04-01T23:36:43;9.68;;;5.90;;
55082;SDS011;40978;52.850;6.506;2023-04-01T23:39:22;8.27;;;5.90;;
55082;SDS011;40978;52.850;6.506;2023-04-01T23:44:58;8.80;;;5.22;;
55082;SDS011;40978;52.850;6.506;2023-04-01T23:47:33;8.50;;;6.03;;
55082;SDS011;40978;52.850;6.506;2023-04-01T23:50:04;10.95;;;5.72;;
55082;SDS011;40978;52.850;6.506;2023-04-01T23:52:39;9.07;;;7.18;;
55082;SDS011;40978;52.850;6.506;2023-04-01T23:55:13;7.00;;;4.82;;
55082;SDS011;40978;52.850;6.506;2023-04-01T23:57:43;8.43;;;6.05;;
